createdAt,value
2022-08-21T00:02:26.509Z,12.19
2022-08-21T00:04:57.426Z,12.18
2022-08-21T00:07:27.211Z,12.13
2022-08-21T00:09:54.424Z,12.14
2022-08-21T00:12:23.994Z,12.10
2022-08-21T00:14:51.399Z,12.28
2022-08-21T00:17:24.284Z,12.32
2022-08-21T00:19:52.688Z,12.32
2022-08-21T00:22:21.123Z,12.28
2022-08-21T00:24:50.360Z,12.23
2022-08-21T00:27:17.266Z,12.15
2022-08-21T00:29:44.619Z,12.03
2022-08-21T00:32:11.462Z,11.94
2022-08-21T00:34:38.530Z,11.83
2022-08-21T00:37:05.623Z,11.87
2022-08-21T00:39:35.022Z,11.78
2022-08-21T00:42:02.131Z,11.67
2022-08-21T00:44:30.674Z,11.68
2022-08-21T00:46:57.532Z,11.72
2022-08-21T00:49:27.163Z,11.85
2022-08-21T00:51:57.371Z,11.88
2022-08-21T00:54:26.968Z,11.84
2022-08-21T00:57:00.711Z,11.91
2022-08-21T00:59:33.180Z,11.84
2022-08-21T01:02:00.011Z,11.68
2022-08-21T01:04:27.269Z,11.54
2022-08-21T01:06:54.411Z,11.61
2022-08-21T01:09:21.425Z,11.68
2022-08-21T01:11:49.231Z,11.80
2022-08-21T01:14:18.954Z,11.82
2022-08-21T01:16:50.489Z,12.05
2022-08-21T01:19:19.267Z,11.98
2022-08-21T01:21:48.884Z,12.04
2022-08-21T01:24:16.011Z,11.94
2022-08-21T01:26:45.219Z,11.93
2022-08-21T01:29:17.717Z,11.93
2022-08-21T01:31:45.324Z,11.97
2022-08-21T01:34:12.320Z,11.96
2022-08-21T01:36:39.337Z,11.91
2022-08-21T01:39:07.735Z,11.97
2022-08-21T01:41:34.967Z,11.92
2022-08-21T01:44:05.237Z,11.77
2022-08-21T01:46:32.486Z,11.79
2022-08-21T01:49:00.538Z,11.80
2022-08-21T01:51:27.496Z,11.69
2022-08-21T01:53:56.046Z,11.82
2022-08-21T01:56:25.679Z,11.79
2022-08-21T01:58:52.679Z,11.68
2022-08-21T02:01:19.677Z,11.71
2022-08-21T02:03:46.660Z,11.66
2022-08-21T02:06:16.063Z,11.67
2022-08-21T02:08:43.144Z,11.70
2022-08-21T02:11:10.196Z,11.83
2022-08-21T02:13:38.605Z,11.83
2022-08-21T02:16:06.130Z,11.79
2022-08-21T02:18:33.201Z,11.79
2022-08-21T02:21:01.229Z,11.75
2022-08-21T02:23:28.295Z,11.76
2022-08-21T02:25:55.920Z,11.76
2022-08-21T02:28:23.207Z,11.79
2022-08-21T02:30:53.083Z,11.78
2022-08-21T02:33:21.089Z,11.82
2022-08-21T02:35:49.733Z,11.81
2022-08-21T02:38:20.018Z,11.94
2022-08-21T02:40:51.270Z,12.02
2022-08-21T02:43:19.341Z,12.01
2022-08-21T02:45:48.574Z,11.86
2022-08-21T02:48:20.144Z,11.94
2022-08-21T02:50:52.588Z,12.04
2022-08-21T02:53:20.798Z,12.04
2022-08-21T02:55:54.139Z,11.87
2022-08-21T02:58:24.348Z,11.86
2022-08-21T03:00:52.150Z,11.68
2022-08-21T03:03:21.543Z,11.78
2022-08-21T03:05:48.914Z,11.85
2022-08-21T03:08:16.883Z,11.97
2022-08-21T03:10:46.084Z,11.91
2022-08-21T03:13:14.955Z,12.01
2022-08-21T03:15:42.921Z,11.89
2022-08-21T03:18:12.417Z,11.98
2022-08-21T03:20:42.119Z,12.13
2022-08-21T03:23:13.359Z,12.21
2022-08-21T03:25:42.296Z,12.13
2022-08-21T03:28:15.352Z,12.13
2022-08-21T03:30:42.584Z,12.09
2022-08-21T03:33:15.236Z,12.05
2022-08-21T03:35:46.149Z,12.04
2022-08-21T03:38:14.050Z,12.01
2022-08-21T03:40:41.749Z,12.06
2022-08-21T03:43:10.572Z,11.97
2022-08-21T03:45:39.089Z,11.87
2022-08-21T03:48:09.425Z,11.89
2022-08-21T03:50:43.381Z,11.92
2022-08-21T03:53:17.341Z,11.94
2022-08-21T03:55:48.593Z,11.88
2022-08-21T03:58:19.223Z,11.95
2022-08-21T04:00:51.043Z,11.98
2022-08-21T04:03:18.211Z,11.95
2022-08-21T04:05:47.468Z,11.95
2022-08-21T04:08:17.799Z,12.03
2022-08-21T04:10:47.590Z,12.04
2022-08-21T04:13:15.256Z,12.13
2022-08-21T04:15:49.781Z,12.10
2022-08-21T04:18:17.783Z,12.11
2022-08-21T04:20:50.715Z,12.10
2022-08-21T04:23:23.580Z,12.06
2022-08-21T04:25:51.952Z,12.10
2022-08-21T04:28:20.327Z,12.24
2022-08-21T04:30:48.004Z,12.19
2022-08-21T04:33:15.412Z,12.15
2022-08-21T04:35:42.927Z,12.08
2022-08-21T04:38:09.928Z,12.07
2022-08-21T04:40:46.827Z,12.09
2022-08-21T04:43:15.079Z,12.10
2022-08-21T04:45:45.668Z,12.00
2022-08-21T04:48:19.544Z,12.00
2022-08-21T04:50:52.040Z,11.97
2022-08-21T04:53:23.622Z,12.05
2022-08-21T04:55:55.173Z,12.14
2022-08-21T04:58:26.908Z,12.05
2022-08-21T05:00:56.879Z,12.17
2022-08-21T05:03:24.895Z,12.30
2022-08-21T05:05:51.790Z,12.32
2022-08-21T05:08:22.626Z,12.25
2022-08-21T05:10:49.902Z,12.28
2022-08-21T05:13:19.183Z,12.23
2022-08-21T05:15:47.508Z,12.12
2022-08-21T05:18:14.786Z,12.15
2022-08-21T05:20:41.619Z,12.11
2022-08-21T05:23:10.108Z,12.24
2022-08-21T05:25:39.947Z,12.23
2022-08-21T05:28:07.611Z,12.25
2022-08-21T05:30:37.742Z,12.24
2022-08-21T05:33:07.333Z,12.31
2022-08-21T05:35:34.570Z,12.41
2022-08-21T05:38:02.669Z,12.44
2022-08-21T05:40:29.725Z,12.40
2022-08-21T05:43:00.693Z,12.43
2022-08-21T05:45:43.191Z,12.44
2022-08-21T05:48:17.546Z,12.47
2022-08-21T05:50:45.535Z,12.51
2022-08-21T05:53:16.040Z,12.54
2022-08-21T05:55:46.033Z,12.57
2022-08-21T05:58:16.047Z,12.63
2022-08-21T06:00:43.409Z,12.71
2022-08-21T06:03:17.692Z,12.76
2022-08-21T06:05:44.577Z,12.90
2022-08-21T06:08:14.824Z,13.06
2022-08-21T06:10:41.905Z,13.16
2022-08-21T06:13:08.929Z,13.18
2022-08-21T06:15:38.634Z,13.23
2022-08-21T06:18:06.582Z,13.21
2022-08-21T06:20:35.075Z,13.40
2022-08-21T06:23:02.603Z,13.55
2022-08-21T06:25:30.904Z,13.59
2022-08-21T06:28:03.143Z,13.65
2022-08-21T06:30:32.376Z,13.74
2022-08-21T06:33:00.413Z,13.81
2022-08-21T06:35:27.850Z,13.85
2022-08-21T06:37:56.253Z,13.93
2022-08-21T06:40:27.767Z,13.97
2022-08-21T06:42:58.381Z,14.04
2022-08-21T06:45:32.615Z,14.08
2022-08-21T06:48:00.247Z,14.17
2022-08-21T06:50:27.787Z,14.29
2022-08-21T06:53:02.089Z,14.44
2022-08-21T06:55:32.011Z,14.53
2022-08-21T06:57:59.006Z,14.59
2022-08-21T07:00:30.307Z,14.75
2022-08-21T07:02:57.570Z,14.98
2022-08-21T07:05:27.373Z,15.25
2022-08-21T07:07:58.346Z,16.00
2022-08-21T07:10:29.379Z,16.41
2022-08-21T07:13:00.140Z,17.15
2022-08-21T07:15:29.463Z,17.50
2022-08-21T07:17:57.745Z,17.95
2022-08-21T07:20:26.824Z,17.96
2022-08-21T07:22:54.191Z,17.88
2022-08-21T07:25:21.580Z,17.87
2022-08-21T07:27:55.643Z,18.13
2022-08-21T07:30:24.032Z,18.61
2022-08-21T07:32:51.832Z,19.05
2022-08-21T07:35:27.202Z,19.28
2022-08-21T07:37:54.908Z,19.53
2022-08-21T07:40:24.401Z,19.50
2022-08-21T07:42:55.123Z,19.06
2022-08-21T07:45:23.989Z,19.05
2022-08-21T07:47:55.422Z,19.00
2022-08-21T07:50:27.810Z,19.00
2022-08-21T07:52:55.461Z,19.36
2022-08-21T07:55:25.768Z,19.30
2022-08-21T07:58:02.685Z,19.77
2022-08-21T08:00:31.326Z,19.68
2022-08-21T08:02:58.539Z,19.39
2022-08-21T08:05:29.337Z,19.61
2022-08-21T08:07:58.843Z,19.57
2022-08-21T08:10:27.670Z,19.42
2022-08-21T08:12:56.282Z,19.27
2022-08-21T08:15:27.542Z,19.20
2022-08-21T08:17:55.372Z,18.73
2022-08-21T08:20:23.922Z,18.70
2022-08-21T08:22:51.474Z,18.55
2022-08-21T08:25:23.129Z,18.57
2022-08-21T08:27:51.059Z,18.66
2022-08-21T08:30:22.462Z,18.59
2022-08-21T08:32:49.310Z,18.55
2022-08-21T08:35:16.934Z,18.63
2022-08-21T08:37:51.410Z,18.42
2022-08-21T08:40:30.605Z,18.49
2022-08-21T08:43:00.061Z,18.64
2022-08-21T08:45:33.880Z,19.11
2022-08-21T08:48:06.582Z,19.76
2022-08-21T08:50:46.428Z,20.28
2022-08-21T08:53:19.465Z,20.23
2022-08-21T08:55:52.165Z,20.37
2022-08-21T08:58:23.977Z,20.35
2022-08-21T09:00:55.956Z,20.22
2022-08-21T09:03:25.891Z,20.35
2022-08-21T09:06:01.553Z,20.72
2022-08-21T09:08:48.502Z,20.79
2022-08-21T09:11:28.027Z,20.61
2022-08-21T09:14:08.750Z,20.16
2022-08-21T09:16:47.710Z,19.21
2022-08-21T09:19:30.385Z,19.52
2022-08-21T09:22:09.434Z,19.96
2022-08-21T09:25:01.118Z,20.19
2022-08-21T09:27:28.168Z,20.62
2022-08-21T09:29:58.892Z,21.08
2022-08-21T09:32:36.864Z,21.50
2022-08-21T09:35:08.250Z,22.02
2022-08-21T09:37:46.833Z,21.91
2022-08-21T09:40:29.916Z,22.18
2022-08-21T09:42:59.961Z,22.43
2022-08-21T09:45:28.323Z,22.27
2022-08-21T09:48:12.715Z,22.22
2022-08-21T09:50:40.973Z,22.06
2022-08-21T09:53:18.483Z,21.75
2022-08-21T09:55:50.591Z,21.48
2022-08-21T09:58:19.637Z,21.39
2022-08-21T10:00:57.160Z,21.51
2022-08-21T10:03:26.762Z,21.59
2022-08-21T10:05:59.009Z,21.86
2022-08-21T10:08:27.858Z,22.28
2022-08-21T10:11:04.136Z,22.31
2022-08-21T10:13:43.690Z,22.97
2022-08-21T10:16:27.272Z,22.93
2022-08-21T10:19:07.034Z,23.25
2022-08-21T10:21:43.517Z,23.46
2022-08-21T10:24:30.517Z,23.29
2022-08-21T10:27:20.990Z,23.84
2022-08-21T10:29:55.370Z,23.84
2022-08-21T10:32:47.628Z,23.43
2022-08-21T10:35:23.424Z,23.14
2022-08-21T10:38:39.386Z,22.77
2022-08-21T10:41:15.307Z,22.41
2022-08-21T10:43:52.365Z,21.97
2022-08-21T10:46:39.136Z,21.79
2022-08-21T10:49:18.613Z,21.45
2022-08-21T10:51:58.456Z,21.08
2022-08-21T10:54:38.324Z,20.91
2022-08-21T10:57:10.996Z,20.61
2022-08-21T10:59:43.269Z,20.44
2022-08-21T11:02:16.379Z,20.27
2022-08-21T11:04:56.352Z,20.10
2022-08-21T11:07:33.643Z,19.83
2022-08-21T11:10:10.265Z,19.81
2022-08-21T11:12:44.267Z,19.76
2022-08-21T11:15:29.643Z,19.64
2022-08-21T11:18:04.580Z,19.75
2022-08-21T11:20:42.614Z,19.78
2022-08-21T11:23:17.704Z,19.88
2022-08-21T11:25:50.564Z,19.90
2022-08-21T11:28:22.683Z,19.71
2022-08-21T11:31:13.924Z,19.76
2022-08-21T11:33:57.991Z,19.65
2022-08-21T11:36:35.284Z,19.72
2022-08-21T11:39:16.536Z,19.78
2022-08-21T11:41:54.986Z,19.69
2022-08-21T11:44:33.012Z,19.45
2022-08-21T11:47:06.872Z,19.66
2022-08-21T11:49:48.273Z,19.83
2022-08-21T11:52:21.604Z,19.88
2022-08-21T11:54:59.631Z,19.87
2022-08-21T11:57:34.117Z,19.90
2022-08-21T12:00:06.398Z,20.08
2022-08-21T12:02:37.287Z,20.32
2022-08-21T12:05:09.353Z,20.56
2022-08-21T12:07:43.267Z,20.54
2022-08-21T12:10:15.427Z,20.57
2022-08-21T12:12:46.985Z,20.15
2022-08-21T12:15:18.370Z,20.32
2022-08-21T12:17:58.990Z,20.32
2022-08-21T12:20:39.588Z,20.30
2022-08-21T12:23:25.096Z,20.54
2022-08-21T12:26:20.702Z,20.73
2022-08-21T12:28:49.149Z,21.20
2022-08-21T12:31:25.640Z,21.54
2022-08-21T12:33:58.311Z,22.03
2022-08-21T12:36:38.842Z,22.12
2022-08-21T12:39:15.016Z,22.21
2022-08-21T12:41:49.331Z,22.75
2022-08-21T12:44:23.902Z,22.86
2022-08-21T12:46:56.771Z,22.90
2022-08-21T12:49:36.187Z,23.02
2022-08-21T12:52:13.453Z,22.80
2022-08-21T12:54:43.358Z,22.62
2022-08-21T12:57:21.713Z,22.67
2022-08-21T12:59:56.484Z,22.62
2022-08-21T13:02:27.146Z,22.43
2022-08-21T13:04:59.291Z,22.32
2022-08-21T13:07:30.723Z,22.15
2022-08-21T13:10:01.470Z,22.12
2022-08-21T13:12:32.768Z,21.85
2022-08-21T13:15:08.768Z,21.71
2022-08-21T13:17:39.565Z,21.58
2022-08-21T13:20:10.952Z,21.57
2022-08-21T13:22:43.252Z,21.35
2022-08-21T13:25:12.641Z,21.24
2022-08-21T13:27:56.938Z,21.40
2022-08-21T13:30:27.297Z,21.41
2022-08-21T13:33:01.378Z,21.46
2022-08-21T13:35:35.696Z,21.56
2022-08-21T13:38:05.505Z,21.67
2022-08-21T13:40:47.415Z,21.74
2022-08-21T13:43:21.165Z,22.02
2022-08-21T13:45:54.383Z,22.19
2022-08-21T13:48:29.961Z,22.34
2022-08-21T13:50:58.254Z,22.34
2022-08-21T13:53:31.342Z,22.44
2022-08-21T13:56:02.766Z,22.53
2022-08-21T13:58:41.944Z,22.62
2022-08-21T14:01:24.620Z,22.48
2022-08-21T14:03:55.452Z,22.41
2022-08-21T14:06:29.038Z,22.42
2022-08-21T14:09:00.758Z,22.54
2022-08-21T14:11:33.391Z,22.35
2022-08-21T14:14:07.469Z,22.50
2022-08-21T14:16:45.727Z,22.41
2022-08-21T14:19:22.122Z,22.64
2022-08-21T14:21:52.106Z,22.69
2022-08-21T14:24:28.173Z,22.74
2022-08-21T14:27:01.955Z,22.66
2022-08-21T14:29:36.282Z,22.73
2022-08-21T14:32:21.492Z,22.87
2022-08-21T14:34:54.536Z,22.91
2022-08-21T14:37:23.925Z,22.97
2022-08-21T14:39:51.332Z,22.78
2022-08-21T14:42:19.960Z,22.65
2022-08-21T14:44:57.596Z,22.50
2022-08-21T14:47:25.853Z,22.32
2022-08-21T14:49:57.291Z,22.35
2022-08-21T14:52:24.952Z,22.03
2022-08-21T14:54:51.919Z,21.53
2022-08-21T14:57:18.785Z,21.58
2022-08-21T14:59:47.987Z,21.67
2022-08-21T15:02:18.068Z,21.88
2022-08-21T15:04:48.767Z,21.88
2022-08-21T15:07:15.610Z,22.01
2022-08-21T15:09:45.027Z,21.80
2022-08-21T15:12:16.244Z,21.77
2022-08-21T15:14:45.899Z,21.80
2022-08-21T15:17:13.929Z,21.81
2022-08-21T15:19:43.323Z,21.80
2022-08-21T15:22:15.455Z,21.82
2022-08-21T15:24:48.490Z,21.77
2022-08-21T15:27:19.399Z,21.70
2022-08-21T15:29:46.643Z,21.55
2022-08-21T15:32:20.282Z,21.52
2022-08-21T15:34:50.355Z,21.58
2022-08-21T15:37:19.838Z,21.54
2022-08-21T15:39:52.292Z,21.60
2022-08-21T15:42:25.755Z,21.54
2022-08-21T15:45:02.401Z,21.51
2022-08-21T15:47:36.750Z,21.47
2022-08-21T15:50:08.581Z,21.38
2022-08-21T15:52:36.905Z,21.29
2022-08-21T15:55:05.417Z,21.19
2022-08-21T15:57:32.715Z,21.07
2022-08-21T16:00:01.660Z,21.01
2022-08-21T16:02:32.946Z,21.08
2022-08-21T16:05:02.853Z,20.94
2022-08-21T16:07:32.779Z,21.01
2022-08-21T16:10:00.716Z,20.81
2022-08-21T16:12:35.250Z,20.84
2022-08-21T16:15:05.010Z,20.91
2022-08-21T16:17:35.809Z,20.73
2022-08-21T16:20:07.198Z,20.85
2022-08-21T16:22:43.950Z,20.82
2022-08-21T16:25:13.246Z,20.79
2022-08-21T16:27:46.048Z,20.69
2022-08-21T16:30:15.023Z,20.68
2022-08-21T16:32:45.145Z,20.53
2022-08-21T16:35:16.625Z,20.53
2022-08-21T16:37:51.040Z,20.20
2022-08-21T16:40:20.448Z,20.16
2022-08-21T16:42:49.615Z,20.19
2022-08-21T16:45:21.612Z,20.18
2022-08-21T16:47:49.398Z,20.15
2022-08-21T16:50:22.910Z,20.08
2022-08-21T16:52:53.792Z,19.99
2022-08-21T16:55:21.899Z,20.00
2022-08-21T16:57:48.873Z,19.95
2022-08-21T17:00:16.800Z,19.79
2022-08-21T17:02:47.784Z,19.84
2022-08-21T17:05:24.394Z,19.78
2022-08-21T17:07:53.756Z,19.63
2022-08-21T17:10:23.664Z,19.57
2022-08-21T17:12:55.592Z,19.37
2022-08-21T17:15:30.978Z,19.07
2022-08-21T17:18:03.818Z,19.16
2022-08-21T17:20:32.329Z,19.07
2022-08-21T17:23:04.521Z,18.83
2022-08-21T17:25:32.458Z,18.89
2022-08-21T17:28:04.068Z,18.84
2022-08-21T17:30:33.697Z,18.49
2022-08-21T17:33:01.500Z,18.19
2022-08-21T17:35:28.960Z,17.95
2022-08-21T17:37:59.528Z,17.84
2022-08-21T17:40:31.442Z,17.74
2022-08-21T17:43:07.104Z,17.36
2022-08-21T17:45:39.237Z,16.95
2022-08-21T17:48:06.885Z,16.76
2022-08-21T17:50:34.427Z,16.55
2022-08-21T17:53:02.512Z,16.27
2022-08-21T17:55:32.015Z,16.50
2022-08-21T17:58:01.051Z,16.15
2022-08-21T18:00:31.148Z,15.96
2022-08-21T18:03:02.064Z,15.93
2022-08-21T18:05:32.392Z,15.64
2022-08-21T18:08:03.670Z,15.62
2022-08-21T18:10:33.093Z,15.24
2022-08-21T18:13:05.861Z,14.98
2022-08-21T18:15:34.289Z,14.89
2022-08-21T18:18:03.945Z,15.02
2022-08-21T18:20:31.976Z,15.01
2022-08-21T18:23:01.853Z,14.91
2022-08-21T18:25:32.020Z,14.79
2022-08-21T18:28:02.868Z,14.71
2022-08-21T18:30:37.477Z,14.60
2022-08-21T18:33:07.507Z,14.55
2022-08-21T18:35:35.230Z,14.56
2022-08-21T18:38:02.301Z,14.49
2022-08-21T18:40:37.734Z,14.42
2022-08-21T18:43:07.685Z,14.30
2022-08-21T18:45:37.316Z,14.21
2022-08-21T18:48:07.285Z,14.17
2022-08-21T18:50:36.815Z,14.18
2022-08-21T18:53:20.829Z,14.14
2022-08-21T18:55:57.117Z,13.96
2022-08-21T18:58:34.665Z,13.83
2022-08-21T19:01:01.842Z,13.74
2022-08-21T19:03:29.767Z,13.77
2022-08-21T19:05:58.777Z,13.80
2022-08-21T19:08:27.385Z,13.70
2022-08-21T19:10:59.510Z,13.73
2022-08-21T19:13:27.094Z,13.69
2022-08-21T19:15:57.517Z,13.68
2022-08-21T19:18:28.674Z,13.70
2022-08-21T19:20:57.660Z,13.72
2022-08-21T19:23:29.414Z,13.64
2022-08-21T19:26:02.789Z,13.71
2022-08-21T19:28:33.912Z,13.74
2022-08-21T19:31:06.623Z,13.65
2022-08-21T19:33:40.925Z,13.64
2022-08-21T19:36:15.500Z,13.69
2022-08-21T19:38:43.583Z,13.74
2022-08-21T19:41:18.741Z,13.67
2022-08-21T19:43:51.046Z,13.78
2022-08-21T19:46:26.244Z,13.96
2022-08-21T19:49:01.193Z,14.14
2022-08-21T19:51:29.105Z,14.03
2022-08-21T19:53:57.419Z,13.91
2022-08-21T19:56:36.634Z,13.92
2022-08-21T19:59:07.719Z,13.82
2022-08-21T20:01:40.093Z,13.73
2022-08-21T20:06:56.435Z,13.86
2022-08-21T20:12:09.889Z,13.77
2022-08-21T20:14:47.549Z,13.80
2022-08-21T20:17:17.422Z,13.81
2022-08-21T20:19:50.174Z,13.74
2022-08-21T20:22:24.345Z,13.71
2022-08-21T20:24:53.939Z,13.68
2022-08-21T20:27:25.858Z,13.78
2022-08-21T20:29:54.704Z,13.89
2022-08-21T20:32:22.341Z,13.92
2022-08-21T20:34:52.043Z,13.76
2022-08-21T20:37:22.162Z,13.66
2022-08-21T20:40:10.460Z,13.66
2022-08-21T20:42:41.301Z,13.53
2022-08-21T20:45:28.785Z,13.48
2022-08-21T20:48:04.183Z,13.60
2022-08-21T20:50:39.911Z,13.48
2022-08-21T20:53:13.339Z,13.47
2022-08-21T20:55:49.678Z,13.46
2022-08-21T20:58:33.243Z,13.35
2022-08-21T21:01:07.702Z,13.38
2022-08-21T21:03:42.283Z,13.22
2022-08-21T21:06:17.143Z,13.47
2022-08-21T21:08:49.904Z,13.55
2022-08-21T21:11:24.886Z,13.62
2022-08-21T21:14:00.550Z,13.58
2022-08-21T21:16:33.885Z,13.56
2022-08-21T21:19:11.143Z,13.58
2022-08-21T21:21:51.242Z,13.65
2022-08-21T21:24:32.210Z,13.80
2022-08-21T21:30:04.611Z,13.74
2022-08-21T21:32:34.834Z,13.71
2022-08-21T21:35:06.332Z,13.75
2022-08-21T21:37:45.283Z,13.68
2022-08-21T21:40:32.189Z,13.71
2022-08-21T21:43:10.915Z,13.90
2022-08-21T21:45:49.194Z,14.00
2022-08-21T21:48:28.959Z,13.77
2022-08-21T21:53:56.387Z,13.68
2022-08-21T21:56:34.523Z,13.53
2022-08-21T21:59:18.202Z,13.55
2022-08-21T22:01:51.450Z,13.47
2022-08-21T22:04:32.691Z,13.31
2022-08-21T22:07:11.686Z,13.18
2022-08-21T22:09:48.953Z,13.06
2022-08-21T22:12:32.159Z,13.12
2022-08-21T22:15:05.969Z,13.07
2022-08-21T22:17:46.683Z,12.90
2022-08-21T22:20:22.667Z,12.83
2022-08-21T22:22:56.587Z,12.84
2022-08-21T22:25:34.710Z,12.62
2022-08-21T22:28:06.789Z,12.57
2022-08-21T22:30:42.325Z,12.57
2022-08-21T22:33:20.066Z,12.56
2022-08-21T22:35:51.646Z,12.56
2022-08-21T22:38:29.884Z,12.40
2022-08-21T22:41:11.357Z,12.37
2022-08-21T22:43:50.865Z,12.16
2022-08-21T22:46:28.803Z,12.10
2022-08-21T22:49:02.708Z,12.10
2022-08-21T22:51:34.934Z,12.19
2022-08-21T22:54:04.205Z,12.17
2022-08-21T22:56:51.469Z,12.12
2022-08-21T22:59:26.651Z,12.11
2022-08-21T23:01:59.311Z,12.09
2022-08-21T23:04:28.514Z,12.18
2022-08-21T23:06:57.702Z,12.36
2022-08-21T23:09:35.874Z,12.34
2022-08-21T23:12:21.156Z,12.31
2022-08-21T23:14:48.593Z,12.27
2022-08-21T23:17:32.981Z,12.29
2022-08-21T23:20:13.692Z,12.27
2022-08-21T23:22:59.433Z,12.39
2022-08-21T23:25:46.825Z,12.12
2022-08-21T23:28:26.310Z,12.05
2022-08-21T23:31:06.912Z,11.86
2022-08-21T23:34:06.100Z,11.77
2022-08-21T23:37:07.308Z,11.75
2022-08-21T23:39:55.259Z,11.72
2022-08-21T23:42:48.030Z,11.88
2022-08-21T23:45:33.102Z,11.92
2022-08-21T23:48:19.837Z,11.74
2022-08-21T23:51:01.461Z,11.76
2022-08-21T23:53:50.545Z,11.75
2022-08-21T23:56:27.711Z,11.83
2022-08-21T23:59:04.292Z,11.72
